createdAt,value
2023-05-06T00:01:23.002Z,13.40
2023-05-06T00:03:51.685Z,17.70
2023-05-06T00:06:19.701Z,16.30
2023-05-06T00:08:48.081Z,15.30
2023-05-06T00:11:16.271Z,13.00
2023-05-06T00:13:43.979Z,17.20
2023-05-06T00:16:12.138Z,15.20
2023-05-06T00:18:41.195Z,18.10
2023-05-06T00:21:08.862Z,16.30
2023-05-06T00:23:37.355Z,13.50
2023-05-06T00:26:06.418Z,14.00
2023-05-06T00:28:34.219Z,14.20
2023-05-06T00:31:02.455Z,12.40
2023-05-06T00:33:30.722Z,12.40
2023-05-06T00:35:59.112Z,15.60
2023-05-06T00:38:27.250Z,14.60
2023-05-06T00:40:54.957Z,16.60
2023-05-06T00:43:22.643Z,12.70
2023-05-06T00:45:51.444Z,17.00
2023-05-06T00:48:19.745Z,13.60
2023-05-06T00:50:47.913Z,14.70
2023-05-06T00:53:19.208Z,14.30
2023-05-06T00:55:48.073Z,9.60
2023-05-06T00:58:15.918Z,12.20
2023-05-06T01:00:44.750Z,12.80
2023-05-06T01:03:13.020Z,15.70
2023-05-06T01:05:59.562Z,12.80
2023-05-06T01:08:35.150Z,10.90
2023-05-06T01:11:17.568Z,13.40
2023-05-06T01:13:56.458Z,11.90
2023-05-06T01:16:27.161Z,11.60
2023-05-06T01:18:55.131Z,11.40
2023-05-06T01:21:26.883Z,13.90
2023-05-06T01:23:58.033Z,17.80
2023-05-06T01:26:27.350Z,14.70
2023-05-06T01:28:56.092Z,13.10
2023-05-06T01:31:27.791Z,14.00
2023-05-06T01:34:18.437Z,11.00
2023-05-06T01:37:04.662Z,12.70
2023-05-06T01:39:34.267Z,14.80
2023-05-06T01:42:02.870Z,19.30
2023-05-06T01:44:34.739Z,12.40
2023-05-06T01:47:03.095Z,14.10
2023-05-06T01:49:30.967Z,11.60
2023-05-06T01:51:58.751Z,12.50
2023-05-06T01:54:26.468Z,13.20
2023-05-06T01:56:54.361Z,21.20
2023-05-06T01:59:22.659Z,13.70
2023-05-06T02:01:50.842Z,14.30
2023-05-06T02:04:18.549Z,15.10
2023-05-06T02:06:46.260Z,13.40
2023-05-06T02:09:13.980Z,15.60
2023-05-06T02:11:41.731Z,13.30
2023-05-06T02:14:09.850Z,12.30
2023-05-06T02:16:38.188Z,13.00
2023-05-06T02:19:06.558Z,14.80
2023-05-06T02:21:34.240Z,12.80
2023-05-06T02:24:01.933Z,14.60
2023-05-06T02:26:29.690Z,12.20
2023-05-06T02:28:57.941Z,14.50
2023-05-06T02:31:26.130Z,13.70
2023-05-06T02:33:53.818Z,12.30
2023-05-06T02:36:21.525Z,16.00
2023-05-06T02:38:49.203Z,13.60
2023-05-06T02:41:16.929Z,14.70
2023-05-06T02:43:45.119Z,12.60
2023-05-06T02:46:13.892Z,13.60
2023-05-06T02:48:42.074Z,14.80
2023-05-06T02:51:09.789Z,16.30
2023-05-06T02:53:37.449Z,13.40
2023-05-06T02:56:06.102Z,13.10
2023-05-06T02:58:34.263Z,14.10
2023-05-06T03:01:02.590Z,15.40
2023-05-06T03:03:30.515Z,13.30
2023-05-06T03:05:58.197Z,15.50
2023-05-06T03:08:25.862Z,14.80
2023-05-06T03:10:53.582Z,13.60
2023-05-06T03:13:21.406Z,14.70
2023-05-06T03:15:56.625Z,13.50
2023-05-06T03:18:24.294Z,14.80
2023-05-06T03:20:51.951Z,12.40
2023-05-06T03:23:19.838Z,14.20
2023-05-06T03:25:47.534Z,14.90
2023-05-06T03:28:15.671Z,15.70
2023-05-06T03:30:43.354Z,14.50
2023-05-06T03:33:11.062Z,15.20
2023-05-06T03:35:38.784Z,17.10
2023-05-06T03:38:07.388Z,13.30
2023-05-06T03:40:35.554Z,17.30
2023-05-06T03:43:03.707Z,17.20
2023-05-06T03:45:31.428Z,16.20
2023-05-06T03:47:59.117Z,17.50
2023-05-06T03:50:26.882Z,18.60
2023-05-06T03:52:54.665Z,14.20
2023-05-06T03:55:22.896Z,16.30
2023-05-06T03:57:51.082Z,17.20
2023-05-06T04:00:18.911Z,12.60
2023-05-06T04:02:46.929Z,12.50
2023-05-06T04:05:14.657Z,16.10
2023-05-06T04:07:42.350Z,15.00
2023-05-06T04:10:10.454Z,13.60
2023-05-06T04:12:38.149Z,17.60
2023-05-06T04:15:07.554Z,18.30
2023-05-06T04:17:35.459Z,16.90
2023-05-06T04:20:11.576Z,17.70
2023-05-06T04:22:39.523Z,18.00
2023-05-06T04:25:08.584Z,13.90
2023-05-06T04:27:36.538Z,14.60
2023-05-06T04:30:04.639Z,16.40
2023-05-06T04:32:34.174Z,15.80
2023-05-06T04:35:02.889Z,16.40
2023-05-06T04:37:30.949Z,16.20
2023-05-06T04:39:58.758Z,14.00
2023-05-06T04:42:26.625Z,14.10
2023-05-06T04:44:54.610Z,17.40
2023-05-06T04:47:22.834Z,14.40
2023-05-06T04:49:50.617Z,15.80
2023-05-06T04:52:18.537Z,13.70
2023-05-06T04:54:46.434Z,15.00
2023-05-06T04:57:14.228Z,14.20
2023-05-06T04:59:42.833Z,16.90
2023-05-06T05:02:11.796Z,16.40
2023-05-06T05:04:39.554Z,14.30
2023-05-06T05:07:07.711Z,13.80
2023-05-06T05:09:35.931Z,16.50
2023-05-06T05:12:03.831Z,13.80
2023-05-06T05:14:31.615Z,15.10
2023-05-06T05:16:59.875Z,13.10
2023-05-06T05:19:27.582Z,15.40
2023-05-06T05:21:55.371Z,13.20
2023-05-06T05:24:23.058Z,16.50
2023-05-06T05:26:50.723Z,13.40
2023-05-06T05:29:18.446Z,12.90
2023-05-06T05:31:46.843Z,17.60
2023-05-06T05:34:14.707Z,17.10
2023-05-06T05:36:42.829Z,13.90
2023-05-06T05:39:10.511Z,14.00
2023-05-06T05:41:38.270Z,18.30
2023-05-06T05:44:06.051Z,13.50
2023-05-06T05:46:34.488Z,15.50
2023-05-06T05:49:02.259Z,13.20
2023-05-06T05:51:30.026Z,14.00
2023-05-06T05:53:57.829Z,14.60
2023-05-06T05:56:25.693Z,18.10
2023-05-06T05:58:53.719Z,15.60
2023-05-06T06:01:22.040Z,15.20
2023-05-06T06:03:49.896Z,15.10
2023-05-06T06:06:17.899Z,16.60
2023-05-06T06:08:45.669Z,15.60
2023-05-06T06:11:13.353Z,11.60
2023-05-06T06:13:41.317Z,13.70
2023-05-06T06:16:09.534Z,12.30
2023-05-06T06:18:37.329Z,14.00
2023-05-06T06:21:05.260Z,13.90
2023-05-06T06:23:32.955Z,13.50
2023-05-06T06:26:03.189Z,15.00
2023-05-06T06:28:31.592Z,14.20
2023-05-06T06:30:59.874Z,14.90
2023-05-06T06:33:27.716Z,15.70
2023-05-06T06:35:55.501Z,13.80
2023-05-06T06:38:23.174Z,14.30
2023-05-06T06:40:50.834Z,12.90
2023-05-06T06:43:20.124Z,14.90
2023-05-06T06:45:48.572Z,16.70
2023-05-06T06:48:16.596Z,18.60
2023-05-06T06:50:44.355Z,15.20
2023-05-06T06:53:12.032Z,14.90
2023-05-06T06:55:44.052Z,11.80
2023-05-06T06:58:12.338Z,15.30
2023-05-06T07:00:40.518Z,15.50
2023-05-06T07:03:08.364Z,17.00
2023-05-06T07:05:36.176Z,16.50
2023-05-06T07:08:03.884Z,14.50
2023-05-06T07:10:31.685Z,17.90
2023-05-06T07:12:59.446Z,12.80
2023-05-06T07:15:27.627Z,13.60
2023-05-06T07:17:55.610Z,12.90
2023-05-06T07:20:23.676Z,12.60
2023-05-06T07:22:51.372Z,15.20
2023-05-06T07:25:19.131Z,16.20
2023-05-06T07:27:46.864Z,13.80
2023-05-06T07:30:16.047Z,16.20
2023-05-06T07:32:43.793Z,13.40
2023-05-06T07:35:11.851Z,12.10
2023-05-06T07:37:39.871Z,13.50
2023-05-06T07:40:08.374Z,14.50
2023-05-06T07:42:36.173Z,16.10
2023-05-06T07:45:05.830Z,13.10
2023-05-06T07:47:36.670Z,15.70
2023-05-06T07:50:06.929Z,14.40
2023-05-06T07:52:34.810Z,14.80
2023-05-06T07:55:02.619Z,15.30
2023-05-06T07:57:30.967Z,15.60
2023-05-06T07:59:58.744Z,21.80
2023-05-06T08:02:27.321Z,11.50
2023-05-06T08:04:55.173Z,15.30
2023-05-06T08:07:22.881Z,10.90
2023-05-06T08:09:51.236Z,14.70
2023-05-06T08:12:18.972Z,12.10
2023-05-06T08:14:46.780Z,13.20
2023-05-06T08:17:14.550Z,12.60
2023-05-06T08:19:42.237Z,13.50
2023-05-06T08:22:09.969Z,11.50
2023-05-06T08:24:38.086Z,16.00
2023-05-06T08:27:05.867Z,11.40
2023-05-06T08:29:33.553Z,12.90
2023-05-06T08:32:01.671Z,15.30
2023-05-06T08:34:29.478Z,11.50
2023-05-06T08:36:57.850Z,11.50
2023-05-06T08:39:25.796Z,16.40
2023-05-06T08:41:56.527Z,14.20
2023-05-06T08:44:25.216Z,16.90
2023-05-06T08:46:53.119Z,13.30
2023-05-06T08:49:21.677Z,11.70
2023-05-06T08:51:52.582Z,11.30
2023-05-06T08:54:25.253Z,9.50
2023-05-06T08:56:57.313Z,12.10
2023-05-06T08:59:26.852Z,11.60
2023-05-06T09:01:55.082Z,9.80
2023-05-06T09:04:23.070Z,13.00
2023-05-06T09:06:50.860Z,15.30
2023-05-06T09:09:19.134Z,17.60
2023-05-06T09:11:53.973Z,15.60
2023-05-06T09:14:22.557Z,13.30
2023-05-06T09:16:53.289Z,13.60
2023-05-06T09:19:22.622Z,13.00
2023-05-06T09:21:51.637Z,15.50
2023-05-06T09:24:20.890Z,10.60
2023-05-06T09:26:51.204Z,13.90
2023-05-06T09:29:18.920Z,12.60
2023-05-06T09:31:48.224Z,15.80
2023-05-06T09:34:17.518Z,15.00
2023-05-06T09:36:45.669Z,14.30
2023-05-06T09:39:13.791Z,14.50
2023-05-06T09:41:42.644Z,13.00
2023-05-06T09:44:11.655Z,13.50
2023-05-06T09:46:40.883Z,13.00
2023-05-06T09:49:08.843Z,17.20
2023-05-06T09:51:37.146Z,10.40
2023-05-06T09:54:05.989Z,15.50
2023-05-06T09:56:34.797Z,11.90
2023-05-06T09:59:04.363Z,12.20
2023-05-06T10:01:37.405Z,16.30
2023-05-06T10:04:09.688Z,13.10
2023-05-06T10:06:41.290Z,16.80
2023-05-06T10:09:10.556Z,13.40
2023-05-06T10:11:39.265Z,13.20
2023-05-06T10:14:07.805Z,11.50
2023-05-06T10:16:36.655Z,9.10
2023-05-06T10:19:08.116Z,15.70
2023-05-06T10:21:40.882Z,11.80
2023-05-06T10:24:13.430Z,11.20
2023-05-06T10:26:45.001Z,13.80
2023-05-06T10:29:13.571Z,15.20
2023-05-06T10:31:49.894Z,16.50
2023-05-06T10:34:21.405Z,15.00
2023-05-06T10:36:54.161Z,10.30
2023-05-06T10:39:22.008Z,13.70
2023-05-06T10:41:49.826Z,12.00
2023-05-06T10:44:17.564Z,14.80
2023-05-06T10:47:06.003Z,11.20
2023-05-06T10:49:34.180Z,12.60
2023-05-06T10:52:13.855Z,12.60
2023-05-06T10:54:50.475Z,13.20
2023-05-06T10:57:21.849Z,12.40
2023-05-06T10:59:50.169Z,14.30
2023-05-06T11:02:20.533Z,14.20
2023-05-06T11:04:59.664Z,19.30
2023-05-06T11:07:27.721Z,9.50
2023-05-06T11:10:00.921Z,13.10
2023-05-06T11:12:46.224Z,16.10
2023-05-06T11:15:21.281Z,13.60
2023-05-06T11:17:49.001Z,18.20
2023-05-06T11:20:21.666Z,13.60
2023-05-06T11:22:50.550Z,11.60
2023-05-06T11:25:41.523Z,15.20
2023-05-06T11:28:14.120Z,10.20
2023-05-06T11:30:44.911Z,11.60
2023-05-06T11:33:19.950Z,11.30
2023-05-06T11:35:48.116Z,12.30
2023-05-06T11:38:18.846Z,12.10
2023-05-06T11:40:46.699Z,9.70
2023-05-06T11:43:15.775Z,12.50
2023-05-06T11:45:45.907Z,11.70
2023-05-06T11:48:18.421Z,12.00
2023-05-06T11:50:47.786Z,16.70
2023-05-06T11:53:21.128Z,12.20
2023-05-06T11:55:52.406Z,14.90
2023-05-06T11:58:25.609Z,18.00
2023-05-06T12:00:55.939Z,9.10
2023-05-06T12:03:25.849Z,15.70
2023-05-06T12:05:54.515Z,15.60
2023-05-06T12:08:28.458Z,12.90
2023-05-06T12:11:03.358Z,14.70
2023-05-06T12:13:31.531Z,11.70
2023-05-06T12:16:00.508Z,14.80
2023-05-06T12:18:29.535Z,14.50
2023-05-06T12:21:02.585Z,10.00
2023-05-06T12:23:31.181Z,13.90
2023-05-06T12:26:06.662Z,14.00
2023-05-06T12:28:36.397Z,13.10
2023-05-06T12:31:26.097Z,12.10
2023-05-06T12:33:56.086Z,11.80
2023-05-06T12:36:24.986Z,15.60
2023-05-06T12:38:54.370Z,14.60
2023-05-06T12:41:23.618Z,10.30
2023-05-06T12:43:54.660Z,13.40
2023-05-06T12:46:25.777Z,15.60
2023-05-06T12:49:01.954Z,17.40
2023-05-06T12:51:33.666Z,10.00
2023-05-06T12:54:01.370Z,11.20
2023-05-06T12:56:29.112Z,16.20
2023-05-06T12:59:02.115Z,10.50
2023-05-06T13:01:31.532Z,9.50
2023-05-06T13:03:59.475Z,12.30
2023-05-06T13:06:27.198Z,10.80
2023-05-06T13:08:54.895Z,11.40
2023-05-06T13:11:25.785Z,10.70
2023-05-06T13:13:53.961Z,8.60
2023-05-06T13:16:22.182Z,13.80
2023-05-06T13:18:50.015Z,11.20
2023-05-06T13:21:17.744Z,12.80
2023-05-06T13:23:47.035Z,10.40
2023-05-06T13:26:15.603Z,11.00
2023-05-06T13:28:44.139Z,12.80
2023-05-06T13:31:12.345Z,13.10
2023-05-06T13:33:40.109Z,11.20
2023-05-06T13:36:08.257Z,13.20
2023-05-06T13:38:35.971Z,11.90
2023-05-06T13:41:04.187Z,13.30
2023-05-06T13:43:32.522Z,11.20
2023-05-06T13:46:00.332Z,11.70
2023-05-06T13:48:28.054Z,12.10
2023-05-06T13:50:56.177Z,12.00
2023-05-06T13:53:23.861Z,17.90
2023-05-06T13:55:52.251Z,13.60
2023-05-06T13:58:20.606Z,11.80
2023-05-06T14:00:48.853Z,14.60
2023-05-06T14:03:16.519Z,11.20
2023-05-06T14:05:44.352Z,11.80
2023-05-06T14:08:12.100Z,13.50
2023-05-06T14:10:40.355Z,13.50
2023-05-06T14:13:08.655Z,12.60
2023-05-06T14:15:36.478Z,15.70
2023-05-06T14:18:04.642Z,15.60
2023-05-06T14:20:32.711Z,16.90
2023-05-06T14:23:00.409Z,14.10
2023-05-06T14:25:28.607Z,14.40
2023-05-06T14:27:56.965Z,14.80
2023-05-06T14:30:25.909Z,12.10
2023-05-06T14:32:53.975Z,12.40
2023-05-06T14:35:22.083Z,15.30
2023-05-06T14:37:50.084Z,13.80
2023-05-06T14:40:18.340Z,16.70
2023-05-06T14:43:07.145Z,18.10
2023-05-06T14:45:35.134Z,16.10
2023-05-06T14:48:03.873Z,13.30
2023-05-06T14:50:32.380Z,14.30
2023-05-06T14:53:02.217Z,16.10
2023-05-06T14:55:31.305Z,13.60
2023-05-06T14:57:59.535Z,16.00
2023-05-06T15:00:27.429Z,15.50
2023-05-06T15:02:55.813Z,13.30
2023-05-06T15:05:23.665Z,24.10
2023-05-06T15:07:51.433Z,17.70
2023-05-06T15:22:23.756Z,21.30
2023-05-06T15:24:52.015Z,22.20
2023-05-06T15:27:19.731Z,17.90
2023-05-06T15:29:47.514Z,24.00
2023-05-06T15:32:15.515Z,20.50
2023-05-06T15:34:43.282Z,21.40
2023-05-06T15:37:12.122Z,19.30
2023-05-06T15:39:40.513Z,21.20
2023-05-06T15:42:10.052Z,19.40
2023-05-06T15:44:37.855Z,20.60
2023-05-06T15:47:06.353Z,21.70
2023-05-06T15:49:51.634Z,24.40
2023-05-06T15:52:23.041Z,28.30
2023-05-06T15:54:52.122Z,21.80
2023-05-06T15:57:20.504Z,24.30
2023-05-06T15:59:48.239Z,24.60
2023-05-06T16:04:46.917Z,25.30
2023-05-06T16:07:15.819Z,19.50
2023-05-06T16:09:44.574Z,28.10
2023-05-06T16:12:12.319Z,28.80
2023-05-06T16:14:40.179Z,28.80
2023-05-06T16:17:07.883Z,29.00
2023-05-06T16:19:35.640Z,24.10
2023-05-06T16:22:04.719Z,27.30
2023-05-06T16:24:33.166Z,22.70
2023-05-06T16:27:01.224Z,21.10
2023-05-06T16:29:28.971Z,21.20
2023-05-06T16:31:56.641Z,20.00
2023-05-06T16:34:24.507Z,18.90
2023-05-06T16:36:52.919Z,24.10
2023-05-06T16:39:21.113Z,22.50
2023-05-06T16:41:48.825Z,31.50
2023-05-06T16:44:16.851Z,22.90
2023-05-06T16:46:44.577Z,22.20
2023-05-06T16:49:12.626Z,20.00
2023-05-06T16:51:40.812Z,25.10
2023-05-06T16:54:09.056Z,18.20
2023-05-06T16:56:50.917Z,19.80
2023-05-06T16:59:22.282Z,19.10
2023-05-06T17:01:50.968Z,22.80
2023-05-06T17:04:19.344Z,20.20
2023-05-06T17:06:47.435Z,21.80
2023-05-06T17:09:16.422Z,20.50
2023-05-06T17:11:44.103Z,20.80
2023-05-06T17:14:11.835Z,26.70
2023-05-06T17:16:43.127Z,22.20
2023-05-06T17:19:12.292Z,19.70
2023-05-06T17:21:40.083Z,21.00
2023-05-06T17:24:07.820Z,23.50
2023-05-06T17:26:35.790Z,19.10
2023-05-06T17:29:04.067Z,16.20
2023-05-06T17:31:32.184Z,21.00
2023-05-06T17:34:00.872Z,22.10
2023-05-06T17:36:28.559Z,21.50
2023-05-06T17:39:06.590Z,20.90
2023-05-06T17:41:34.760Z,23.90
2023-05-06T17:44:02.469Z,23.70
2023-05-06T17:46:31.360Z,19.70
2023-05-06T17:48:59.186Z,20.70
2023-05-06T17:51:26.962Z,18.90
2023-05-06T17:53:55.144Z,21.50
2023-05-06T17:56:23.360Z,19.80
2023-05-06T17:58:51.803Z,20.30
2023-05-06T18:01:19.629Z,18.30
2023-05-06T18:03:47.429Z,16.40
2023-05-06T18:06:15.306Z,20.40
2023-05-06T18:08:44.491Z,23.90
2023-05-06T18:11:12.756Z,20.00
2023-05-06T18:13:40.464Z,22.70
2023-05-06T18:16:08.505Z,20.60
2023-05-06T18:18:36.320Z,19.80
2023-05-06T18:21:04.073Z,21.70
2023-05-06T18:23:32.472Z,20.60
2023-05-06T18:26:04.597Z,21.40
2023-05-06T18:28:36.817Z,22.50
2023-05-06T18:31:05.295Z,20.10
2023-05-06T18:33:36.584Z,23.00
2023-05-06T18:36:05.438Z,23.10
2023-05-06T18:38:33.127Z,24.40
2023-05-06T18:41:02.042Z,22.90
2023-05-06T18:43:32.554Z,24.50
2023-05-06T18:46:00.335Z,24.80
2023-05-06T18:48:31.026Z,23.30
2023-05-06T18:51:13.426Z,22.40
2023-05-06T18:53:42.202Z,25.90
2023-05-06T18:56:10.660Z,23.40
2023-05-06T18:58:40.164Z,22.10
2023-05-06T19:01:10.820Z,22.30
2023-05-06T19:03:38.898Z,20.90
2023-05-06T19:06:09.174Z,23.70
2023-05-06T19:08:37.495Z,37.70
2023-05-06T19:11:05.282Z,26.10
2023-05-06T19:13:33.687Z,25.10
2023-05-06T19:16:02.130Z,23.10
2023-05-06T19:18:29.889Z,22.10
2023-05-06T19:20:57.664Z,22.80
2023-05-06T19:23:25.348Z,23.20
2023-05-06T19:25:53.559Z,23.40
2023-05-06T19:28:22.039Z,23.50
2023-05-06T19:30:49.778Z,22.80
2023-05-06T19:33:17.486Z,21.00
2023-05-06T19:35:45.214Z,27.00
2023-05-06T19:38:13.365Z,25.80
2023-05-06T19:40:42.201Z,22.10
2023-05-06T19:43:09.886Z,22.70
2023-05-06T19:45:37.621Z,25.60
2023-05-06T19:48:05.725Z,37.60
2023-05-06T19:50:33.551Z,27.90
2023-05-06T19:53:01.828Z,29.00
2023-05-06T19:55:30.900Z,28.00
2023-05-06T19:57:59.017Z,26.20
2023-05-06T20:00:28.156Z,25.90
2023-05-06T20:02:59.953Z,29.30
2023-05-06T20:05:32.124Z,31.10
2023-05-06T20:08:00.866Z,27.90
2023-05-06T20:10:29.704Z,28.90
2023-05-06T20:12:57.976Z,30.40
2023-05-06T20:15:26.815Z,30.50
2023-05-06T20:17:54.564Z,30.40
2023-05-06T20:20:22.755Z,30.50
2023-05-06T20:22:50.946Z,32.80
2023-05-06T20:25:18.954Z,31.50
2023-05-06T20:27:49.915Z,31.10
2023-05-06T20:30:20.353Z,30.80
2023-05-06T20:32:51.885Z,33.00
2023-05-06T20:35:20.431Z,31.10
2023-05-06T20:37:48.604Z,31.50
2023-05-06T20:40:16.361Z,33.60
2023-05-06T20:42:44.125Z,31.20
2023-05-06T20:45:13.221Z,33.70
2023-05-06T20:47:41.060Z,30.70
2023-05-06T20:50:16.315Z,32.60
2023-05-06T20:52:46.028Z,30.50
2023-05-06T20:55:16.829Z,35.10
2023-05-06T20:57:45.051Z,32.90
2023-05-06T21:00:14.652Z,31.10
2023-05-06T21:02:42.552Z,33.40
2023-05-06T21:05:11.732Z,33.30
2023-05-06T21:07:39.896Z,33.20
2023-05-06T21:10:11.104Z,35.90
2023-05-06T21:12:39.650Z,40.70
2023-05-06T21:15:08.114Z,38.80
2023-05-06T21:17:36.495Z,38.40
2023-05-06T21:20:06.226Z,36.10
2023-05-06T21:22:34.143Z,35.80
2023-05-06T21:25:02.348Z,40.30
2023-05-06T21:27:30.137Z,36.70
2023-05-06T21:29:57.799Z,38.20
2023-05-06T21:32:26.087Z,39.00
2023-05-06T21:34:53.778Z,39.00
2023-05-06T21:37:21.936Z,38.10
2023-05-06T21:39:49.593Z,38.80
2023-05-06T21:42:17.335Z,43.00
2023-05-06T21:44:45.001Z,38.40
2023-05-06T21:47:13.200Z,37.80
2023-05-06T21:49:40.940Z,39.40
2023-05-06T21:52:09.153Z,40.60
2023-05-06T21:54:36.820Z,41.70
2023-05-06T21:57:08.060Z,43.20
2023-05-06T21:59:36.281Z,42.20
2023-05-06T22:02:04.670Z,46.40
2023-05-06T22:04:33.004Z,46.70
2023-05-06T22:07:01.303Z,43.80
2023-05-06T22:09:29.032Z,46.20
2023-05-06T22:11:56.751Z,47.80
2023-05-06T22:14:33.551Z,47.20
2023-05-06T22:17:08.115Z,44.90
2023-05-06T22:19:35.834Z,46.60
2023-05-06T22:22:04.347Z,41.40
2023-05-06T22:24:32.076Z,40.20
2023-05-06T22:26:59.767Z,43.60
2023-05-06T22:29:27.455Z,41.20
2023-05-06T22:31:55.940Z,38.40
2023-05-06T22:34:23.628Z,37.70
2023-05-06T22:36:51.306Z,36.60
2023-05-06T22:39:19.014Z,36.50
2023-05-06T22:41:48.499Z,32.30
2023-05-06T22:44:16.977Z,31.70
2023-05-06T22:46:45.362Z,33.90
2023-05-06T22:49:13.963Z,31.60
2023-05-06T22:51:41.888Z,30.50
2023-05-06T22:54:09.649Z,29.30
2023-05-06T22:56:37.466Z,30.00
2023-05-06T22:59:05.916Z,28.60
2023-05-06T23:01:33.731Z,28.00
2023-05-06T23:04:01.475Z,29.00
2023-05-06T23:06:30.898Z,31.90
2023-05-06T23:08:59.295Z,24.90
2023-05-06T23:11:26.992Z,25.70
2023-05-06T23:13:54.634Z,27.10
2023-05-06T23:16:23.621Z,28.80
2023-05-06T23:18:51.370Z,26.50
2023-05-06T23:21:19.054Z,30.00
2023-05-06T23:23:46.748Z,29.30
2023-05-06T23:26:15.238Z,27.40
2023-05-06T23:28:42.949Z,23.50
2023-05-06T23:31:10.800Z,25.30
2023-05-06T23:33:38.580Z,26.20
2023-05-06T23:36:06.639Z,25.30
2023-05-06T23:38:38.006Z,26.40
2023-05-06T23:41:06.521Z,24.30
2023-05-06T23:43:34.253Z,26.00
2023-05-06T23:46:01.983Z,25.30
2023-05-06T23:48:29.789Z,23.10
2023-05-06T23:50:57.475Z,23.30
2023-05-06T23:53:25.664Z,23.20
2023-05-06T23:55:54.431Z,22.20
2023-05-06T23:58:22.217Z,25.40
